createdAt,value
2022-11-14T00:01:12.750Z,11.57
2022-11-14T00:03:39.787Z,11.37
2022-11-14T00:06:07.721Z,11.67
2022-11-14T00:08:36.665Z,12.60
2022-11-14T00:11:03.933Z,12.13
2022-11-14T00:13:30.832Z,13.87
2022-11-14T00:15:57.771Z,11.20
2022-11-14T00:18:24.989Z,12.00
2022-11-14T00:20:53.358Z,12.50
2022-11-14T00:23:21.460Z,11.20
2022-11-14T00:25:48.528Z,11.13
2022-11-14T00:28:15.785Z,11.00
2022-11-14T00:30:48.215Z,10.60
2022-11-14T00:33:20.135Z,10.00
2022-11-14T00:35:57.312Z,11.80
2022-11-14T00:38:24.533Z,10.87
2022-11-14T00:40:51.430Z,10.43
2022-11-14T00:43:18.418Z,9.47
2022-11-14T00:45:46.454Z,9.90
2022-11-14T00:48:14.751Z,10.53
2022-11-14T00:50:42.275Z,8.30
2022-11-14T00:53:09.446Z,10.17
2022-11-14T00:55:37.555Z,10.47
2022-11-14T00:58:04.588Z,9.97
2022-11-14T01:00:31.733Z,10.57
2022-11-14T01:02:58.762Z,9.70
2022-11-14T01:05:26.223Z,9.90
2022-11-14T01:07:53.676Z,10.00
2022-11-14T01:10:21.008Z,8.80
2022-11-14T01:12:47.987Z,9.33
2022-11-14T01:15:14.964Z,10.47
2022-11-14T01:17:41.917Z,9.87
2022-11-14T01:20:09.424Z,9.03
2022-11-14T01:22:36.318Z,9.60
2022-11-14T01:25:03.549Z,8.77
2022-11-14T01:27:33.615Z,9.93
2022-11-14T01:30:00.893Z,8.90
2022-11-14T01:32:28.170Z,9.97
2022-11-14T01:34:55.143Z,10.57
2022-11-14T01:37:22.159Z,9.83
2022-11-14T01:39:49.082Z,9.30
2022-11-14T01:42:17.564Z,8.47
2022-11-14T01:44:49.460Z,8.90
2022-11-14T01:47:27.573Z,9.90
2022-11-14T01:49:59.629Z,10.10
2022-11-14T01:52:35.639Z,10.10
2022-11-14T01:55:07.451Z,10.37
2022-11-14T01:57:39.873Z,10.77
2022-11-14T02:00:10.735Z,10.23
2022-11-14T02:02:38.543Z,10.53
2022-11-14T02:05:13.375Z,9.93
2022-11-14T02:07:41.729Z,10.13
2022-11-14T02:10:19.892Z,8.83
2022-11-14T02:12:47.587Z,11.83
2022-11-14T02:15:14.911Z,10.47
2022-11-14T02:17:44.283Z,9.87
2022-11-14T02:20:11.683Z,10.03
2022-11-14T02:22:42.401Z,11.23
2022-11-14T02:25:13.267Z,9.20
2022-11-14T02:27:41.703Z,11.13
2022-11-14T02:30:18.311Z,10.73
2022-11-14T02:33:09.563Z,10.30
2022-11-14T02:35:33.021Z,9.50
2022-11-14T02:37:59.936Z,11.90
2022-11-14T02:40:27.287Z,10.23
2022-11-14T02:42:54.179Z,10.20
2022-11-14T02:45:21.474Z,10.03
2022-11-14T02:47:48.403Z,11.20
2022-11-14T02:50:15.776Z,10.10
2022-11-14T02:52:42.759Z,10.10
2022-11-14T02:55:10.502Z,10.57
2022-11-14T02:57:37.496Z,10.17
2022-11-14T03:00:11.634Z,9.77
2022-11-14T03:02:41.365Z,10.47
2022-11-14T03:05:08.810Z,8.50
2022-11-14T03:07:35.831Z,10.10
2022-11-14T03:10:03.176Z,9.43
2022-11-14T03:12:30.742Z,9.90
2022-11-14T03:14:58.049Z,9.70
2022-11-14T03:17:25.021Z,10.07
2022-11-14T03:19:52.241Z,8.37
2022-11-14T03:22:19.073Z,8.63
2022-11-14T03:24:46.294Z,9.10
2022-11-14T03:27:13.154Z,9.27
2022-11-14T03:29:39.969Z,8.93
2022-11-14T03:32:06.843Z,9.23
2022-11-14T03:34:34.282Z,9.73
2022-11-14T03:37:01.235Z,10.13
2022-11-14T03:39:28.133Z,9.13
2022-11-14T03:41:55.053Z,8.93
2022-11-14T03:44:22.097Z,9.40
2022-11-14T03:46:49.076Z,10.13
2022-11-14T03:49:15.919Z,8.43
2022-11-14T03:51:42.822Z,8.40
2022-11-14T03:54:09.840Z,8.27
2022-11-14T03:56:36.737Z,8.43
2022-11-14T03:59:03.839Z,8.30
2022-11-14T04:01:30.736Z,9.70
2022-11-14T04:03:57.797Z,8.10
2022-11-14T04:06:24.658Z,8.73
2022-11-14T04:08:56.705Z,8.33
2022-11-14T04:11:23.582Z,9.30
2022-11-14T04:13:50.483Z,9.23
2022-11-14T04:16:17.489Z,9.23
2022-11-14T04:18:44.473Z,8.90
2022-11-14T04:21:11.659Z,9.53
2022-11-14T04:23:38.533Z,21.90
2022-11-14T04:26:05.545Z,21.30
2022-11-14T04:28:32.702Z,19.77
2022-11-14T04:31:00.388Z,14.70
2022-11-14T04:33:27.630Z,13.60
2022-11-14T04:35:54.574Z,12.67
2022-11-14T04:38:21.826Z,11.67
2022-11-14T04:40:52.580Z,11.40
2022-11-14T04:43:20.949Z,9.77
2022-11-14T04:45:47.887Z,9.30
2022-11-14T04:48:14.894Z,11.13
2022-11-14T04:50:41.742Z,10.10
2022-11-14T04:53:08.689Z,10.13
2022-11-14T04:55:35.496Z,10.03
2022-11-14T04:58:02.693Z,11.40
2022-11-14T05:00:29.649Z,10.70
2022-11-14T05:02:59.882Z,8.93
2022-11-14T05:05:26.970Z,6.70
2022-11-14T05:07:55.173Z,7.23
2022-11-14T05:10:22.171Z,8.33
2022-11-14T05:12:49.089Z,7.07
2022-11-14T05:15:16.011Z,7.00
2022-11-14T05:17:42.970Z,7.10
2022-11-14T05:20:10.871Z,7.03
2022-11-14T05:22:37.834Z,6.47
2022-11-14T05:25:06.212Z,7.70
2022-11-14T05:27:33.158Z,6.80
2022-11-14T05:30:00.663Z,6.43
2022-11-14T05:32:27.534Z,5.97
2022-11-14T05:34:54.422Z,6.80
2022-11-14T05:37:21.326Z,7.30
2022-11-14T05:39:48.278Z,6.23
2022-11-14T05:42:15.183Z,9.80
2022-11-14T05:44:42.087Z,7.27
2022-11-14T05:47:08.911Z,8.00
2022-11-14T05:49:35.819Z,8.47
2022-11-14T05:52:02.666Z,7.93
2022-11-14T05:54:29.539Z,8.90
2022-11-14T05:56:56.436Z,7.87
2022-11-14T05:59:23.761Z,7.20
2022-11-14T06:01:50.762Z,7.80
2022-11-14T06:04:17.723Z,8.40
2022-11-14T06:06:44.899Z,9.80
2022-11-14T06:09:11.816Z,9.50
2022-11-14T06:11:38.785Z,9.97
2022-11-14T06:14:10.430Z,9.20
2022-11-14T06:16:37.668Z,8.17
2022-11-14T06:19:05.366Z,8.87
2022-11-14T06:21:32.317Z,8.60
2022-11-14T06:23:59.372Z,8.07
2022-11-14T06:26:30.286Z,6.93
2022-11-14T06:28:58.842Z,6.60
2022-11-14T06:31:26.732Z,6.00
2022-11-14T06:33:53.875Z,6.50
2022-11-14T06:36:21.151Z,7.00
2022-11-14T06:38:48.032Z,7.10
2022-11-14T06:41:17.936Z,7.60
2022-11-14T06:43:47.997Z,7.10
2022-11-14T06:46:18.817Z,6.60
2022-11-14T06:48:47.536Z,7.80
2022-11-14T06:51:16.449Z,7.00
2022-11-14T06:53:43.948Z,7.53
2022-11-14T06:56:16.611Z,6.90
2022-11-14T06:58:47.094Z,6.30
2022-11-14T07:01:17.705Z,7.00
2022-11-14T07:03:46.074Z,6.20
2022-11-14T07:06:16.885Z,5.60
2022-11-14T07:08:43.876Z,5.40
2022-11-14T07:11:23.235Z,5.70
2022-11-14T07:13:55.186Z,5.63
2022-11-14T07:16:29.655Z,5.90
2022-11-14T07:19:00.834Z,6.20
2022-11-14T07:21:30.297Z,6.10
2022-11-14T07:23:57.683Z,5.63
2022-11-14T07:26:25.125Z,6.30
2022-11-14T07:28:55.469Z,5.57
2022-11-14T07:31:24.858Z,6.40
2022-11-14T07:33:51.837Z,7.00
2022-11-14T07:36:18.786Z,13.57
2022-11-14T07:38:45.746Z,6.10
2022-11-14T07:41:15.951Z,6.23
2022-11-14T07:43:43.155Z,6.70
2022-11-14T07:46:16.272Z,6.70
2022-11-14T07:48:43.802Z,5.40
2022-11-14T07:51:18.585Z,7.70
2022-11-14T07:53:45.850Z,11.23
2022-11-14T07:56:13.120Z,7.60
2022-11-14T07:58:41.720Z,6.83
2022-11-14T08:01:12.583Z,7.13
2022-11-14T08:03:45.163Z,6.60
2022-11-14T08:06:15.387Z,5.90
2022-11-14T08:08:42.715Z,6.30
2022-11-14T08:11:10.077Z,6.70
2022-11-14T08:13:37.374Z,6.90
2022-11-14T08:16:13.335Z,6.53
2022-11-14T08:18:41.470Z,6.10
2022-11-14T08:21:08.414Z,7.20
2022-11-14T08:23:35.577Z,8.93
2022-11-14T08:26:02.514Z,11.20
2022-11-14T08:28:29.805Z,7.80
2022-11-14T08:31:04.625Z,6.23
2022-11-14T08:33:32.184Z,6.30
2022-11-14T08:36:03.633Z,7.03
2022-11-14T08:38:33.080Z,7.30
2022-11-14T08:41:02.005Z,7.80
2022-11-14T08:43:30.220Z,7.70
2022-11-14T08:46:01.564Z,7.03
2022-11-14T08:48:30.429Z,7.10
2022-11-14T08:50:58.662Z,7.00
2022-11-14T08:53:25.680Z,7.07
2022-11-14T08:55:52.723Z,7.67
2022-11-14T08:58:19.620Z,6.70
2022-11-14T09:00:46.570Z,7.23
2022-11-14T09:03:14.996Z,7.43
2022-11-14T09:05:42.834Z,7.90
2022-11-14T09:08:09.682Z,7.37
2022-11-14T09:10:37.841Z,8.23
2022-11-14T09:13:04.798Z,7.00
2022-11-14T09:15:31.715Z,7.27
2022-11-14T09:17:58.825Z,7.70
2022-11-14T09:20:31.645Z,8.20
2022-11-14T09:23:02.725Z,8.57
2022-11-14T09:25:30.742Z,7.97
2022-11-14T09:27:58.749Z,8.23
2022-11-14T09:30:25.674Z,8.60
2022-11-14T09:32:52.608Z,8.30
2022-11-14T09:35:19.482Z,8.17
2022-11-14T09:37:46.424Z,8.53
2022-11-14T09:40:14.424Z,9.03
2022-11-14T09:43:07.968Z,8.63
2022-11-14T09:45:40.851Z,8.40
2022-11-14T09:48:17.796Z,10.10
2022-11-14T09:51:12.296Z,9.83
2022-11-14T09:54:08.535Z,9.50
2022-11-14T09:56:35.514Z,9.53
2022-11-14T09:59:03.277Z,10.40
2022-11-14T10:01:57.544Z,9.53
2022-11-14T10:04:49.877Z,9.47
2022-11-14T10:07:29.348Z,10.67
2022-11-14T10:10:22.717Z,11.23
2022-11-14T10:13:21.067Z,11.93
2022-11-14T10:16:39.451Z,9.47
2022-11-14T10:19:54.564Z,7.93
2022-11-14T10:23:01.409Z,9.33
2022-11-14T10:25:42.645Z,8.73
2022-11-14T10:29:05.008Z,10.63
2022-11-14T10:32:06.121Z,9.60
2022-11-14T10:35:29.788Z,8.60
2022-11-14T10:38:25.648Z,8.50
2022-11-14T10:40:59.453Z,8.97
2022-11-14T10:43:48.573Z,33.37
2022-11-14T10:46:32.685Z,13.30
2022-11-14T10:49:00.661Z,8.30
2022-11-14T10:51:37.390Z,7.63
2022-11-14T10:54:17.559Z,8.43
2022-11-14T10:56:53.982Z,7.97
2022-11-14T10:59:21.606Z,7.47
2022-11-14T11:01:53.797Z,8.50
2022-11-14T11:04:26.679Z,8.00
2022-11-14T11:07:07.388Z,7.50
2022-11-14T11:09:58.702Z,7.90
2022-11-14T11:12:48.621Z,7.20
2022-11-14T11:15:30.396Z,7.90
2022-11-14T11:18:31.417Z,7.37
2022-11-14T11:21:12.172Z,8.87
2022-11-14T11:23:57.087Z,7.60
2022-11-14T11:26:30.749Z,8.40
2022-11-14T11:29:11.939Z,7.80
2022-11-14T11:31:55.730Z,9.83
2022-11-14T11:34:30.250Z,9.90
2022-11-14T11:37:34.402Z,10.83
2022-11-14T11:40:07.254Z,10.50
2022-11-14T11:43:36.793Z,10.70
2022-11-14T11:45:35.213Z,11.07
2022-11-14T11:48:22.939Z,10.33
2022-11-14T11:50:50.583Z,11.57
2022-11-14T11:53:42.896Z,10.70
2022-11-14T11:56:14.929Z,11.30
2022-11-14T11:58:49.828Z,12.60
2022-11-14T12:01:17.513Z,13.73
2022-11-14T12:03:50.350Z,13.20
2022-11-14T12:06:25.388Z,13.27
2022-11-14T12:09:10.577Z,15.20
2022-11-14T12:11:41.988Z,16.90
2022-11-14T12:14:23.702Z,18.07
2022-11-14T12:17:20.892Z,17.83
2022-11-14T12:20:25.184Z,35.80
2022-11-14T12:23:18.205Z,18.20
2022-11-14T12:26:13.722Z,14.87
2022-11-14T12:29:19.814Z,16.63
2022-11-14T12:31:57.850Z,17.60
2022-11-14T12:34:32.457Z,17.50
2022-11-14T12:36:59.983Z,18.47
2022-11-14T12:39:30.160Z,15.93
2022-11-14T12:42:10.702Z,18.27
2022-11-14T12:44:39.630Z,18.13
2022-11-14T12:47:06.630Z,17.47
2022-11-14T12:49:48.921Z,17.97
2022-11-14T12:52:55.747Z,19.60
2022-11-14T12:55:25.153Z,18.37
2022-11-14T12:58:14.115Z,18.97
2022-11-14T13:00:49.741Z,19.40
2022-11-14T13:03:30.144Z,19.07
2022-11-14T13:06:06.434Z,18.27
2022-11-14T13:09:07.433Z,19.77
2022-11-14T13:12:01.208Z,18.90
2022-11-14T13:14:49.057Z,18.40
2022-11-14T13:17:34.287Z,19.40
2022-11-14T13:20:40.982Z,20.73
2022-11-14T13:23:26.322Z,25.37
2022-11-14T13:26:11.310Z,18.60
2022-11-14T13:28:38.265Z,17.43
2022-11-14T13:31:37.084Z,19.57
2022-11-14T13:34:37.052Z,19.93
2022-11-14T13:37:37.800Z,20.20
2022-11-14T13:40:17.710Z,18.60
2022-11-14T13:43:24.209Z,20.70
2022-11-14T13:46:37.773Z,20.10
2022-11-14T13:49:40.253Z,19.47
2022-11-14T13:52:07.198Z,25.43
2022-11-14T13:54:34.562Z,23.23
2022-11-14T13:57:49.428Z,19.10
2022-11-14T14:00:21.155Z,16.57
2022-11-14T14:03:13.033Z,15.50
2022-11-14T14:06:06.456Z,15.60
2022-11-14T14:08:57.993Z,16.07
2022-11-14T14:11:50.254Z,16.83
2022-11-14T14:14:51.108Z,17.63
2022-11-14T14:17:31.707Z,16.50
2022-11-14T14:20:18.341Z,15.03
2022-11-14T14:23:08.401Z,16.33
2022-11-14T14:25:56.223Z,16.80
2022-11-14T14:28:50.302Z,16.27
2022-11-14T14:31:20.123Z,15.60
2022-11-14T14:33:50.434Z,17.00
2022-11-14T14:36:19.849Z,15.90
2022-11-14T14:38:47.671Z,14.43
2022-11-14T14:41:18.857Z,15.97
2022-11-14T14:43:55.757Z,15.00
2022-11-14T14:46:32.363Z,16.23
2022-11-14T14:49:03.426Z,15.10
2022-11-14T14:51:37.893Z,14.87
2022-11-14T14:54:07.726Z,17.80
2022-11-14T14:56:34.560Z,15.43
2022-11-14T14:59:22.178Z,15.87
2022-11-14T15:01:49.275Z,18.07
2022-11-14T15:04:18.059Z,18.77
2022-11-14T15:06:47.392Z,17.03
2022-11-14T15:09:19.988Z,18.77
2022-11-14T15:11:52.035Z,18.60
2022-11-14T15:14:26.313Z,18.30
2022-11-14T15:16:55.738Z,20.00
2022-11-14T15:19:32.517Z,18.27
2022-11-14T15:22:26.529Z,19.43
2022-11-14T15:25:11.501Z,33.63
2022-11-14T15:27:54.083Z,46.50
2022-11-14T15:30:30.744Z,27.07
2022-11-14T15:33:01.149Z,17.37
2022-11-14T15:35:36.232Z,15.87
2022-11-14T15:38:42.664Z,15.57
2022-11-14T15:41:10.092Z,15.17
2022-11-14T15:43:42.688Z,15.17
2022-11-14T15:46:47.617Z,15.20
2022-11-14T15:49:14.444Z,15.00
2022-11-14T15:51:54.205Z,15.00
2022-11-14T15:54:31.407Z,16.50
2022-11-14T15:57:16.680Z,15.33
2022-11-14T15:59:43.966Z,16.10
2022-11-14T16:02:31.097Z,16.67
2022-11-14T16:04:59.246Z,16.90
2022-11-14T16:07:28.147Z,17.23
2022-11-14T16:09:55.369Z,17.60
2022-11-14T16:12:22.610Z,22.20
2022-11-14T16:14:49.515Z,22.43
2022-11-14T16:17:18.052Z,21.90
2022-11-14T16:19:45.054Z,19.30
2022-11-14T16:22:17.144Z,20.83
2022-11-14T16:24:44.105Z,21.57
2022-11-14T16:27:11.101Z,22.87
2022-11-14T16:29:37.953Z,22.30
2022-11-14T16:32:05.056Z,22.83
2022-11-14T16:34:31.905Z,23.80
2022-11-14T16:37:01.894Z,24.07
2022-11-14T16:39:29.598Z,21.43
2022-11-14T16:42:03.030Z,22.90
2022-11-14T16:44:32.538Z,22.80
2022-11-14T16:47:01.887Z,22.83
2022-11-14T16:49:28.701Z,20.97
2022-11-14T16:51:57.276Z,22.53
2022-11-14T16:54:24.837Z,23.63
2022-11-14T16:56:51.784Z,23.20
2022-11-14T16:59:18.995Z,22.80
2022-11-14T17:01:48.048Z,21.27
2022-11-14T17:04:15.055Z,21.70
2022-11-14T17:06:42.077Z,21.73
2022-11-14T17:09:12.180Z,20.80
2022-11-14T17:11:39.028Z,20.87
2022-11-14T17:14:06.068Z,23.33
2022-11-14T17:16:32.956Z,23.87
2022-11-14T17:18:59.956Z,19.90
2022-11-14T17:21:27.660Z,21.80
2022-11-14T17:24:01.447Z,21.30
2022-11-14T17:26:29.446Z,19.93
2022-11-14T17:28:56.932Z,20.77
2022-11-14T17:31:23.817Z,21.60
2022-11-14T17:33:55.877Z,20.73
2022-11-14T17:36:25.640Z,21.50
2022-11-14T17:38:53.261Z,22.27
2022-11-14T17:41:20.694Z,21.17
2022-11-14T17:43:54.203Z,20.77
2022-11-14T17:46:21.051Z,18.90
2022-11-14T17:48:48.504Z,19.30
2022-11-14T17:51:16.878Z,20.93
2022-11-14T17:53:44.055Z,20.20
2022-11-14T17:56:16.808Z,21.37
2022-11-14T17:58:43.924Z,19.23
2022-11-14T18:01:13.214Z,23.97
2022-11-14T18:03:41.120Z,21.57
2022-11-14T18:06:20.345Z,19.83
2022-11-14T18:08:48.211Z,19.93
2022-11-14T18:11:17.725Z,20.43
2022-11-14T18:13:44.732Z,19.60
2022-11-14T18:16:16.652Z,19.23
2022-11-14T18:18:43.481Z,19.60
2022-11-14T18:21:23.388Z,19.50
2022-11-14T18:23:56.299Z,17.70
2022-11-14T18:26:29.025Z,19.37
2022-11-14T18:29:02.042Z,17.77
2022-11-14T18:31:29.464Z,21.17
2022-11-14T18:33:56.998Z,18.60
2022-11-14T18:36:24.463Z,18.23
2022-11-14T18:38:51.364Z,18.17
2022-11-14T18:41:21.175Z,19.67
2022-11-14T18:43:49.013Z,19.53
2022-11-14T18:46:22.656Z,18.23
2022-11-14T18:48:53.810Z,18.97
2022-11-14T18:51:23.872Z,19.27
2022-11-14T18:53:55.282Z,20.50
2022-11-14T18:56:23.974Z,20.60
2022-11-14T18:58:56.421Z,18.00
2022-11-14T19:01:29.745Z,18.13
2022-11-14T19:03:59.920Z,16.60
2022-11-14T19:06:27.406Z,18.70
2022-11-14T19:09:10.633Z,16.80
2022-11-14T19:11:57.790Z,17.60
2022-11-14T19:14:24.663Z,18.63
2022-11-14T19:16:51.543Z,19.03
2022-11-14T19:19:18.542Z,19.40
2022-11-14T19:21:50.283Z,19.00
2022-11-14T19:24:17.642Z,17.93
2022-11-14T19:26:44.748Z,18.03
2022-11-14T19:29:14.660Z,17.83
2022-11-14T19:31:43.130Z,19.53
2022-11-14T19:34:10.275Z,19.60
2022-11-14T19:36:59.007Z,16.97
2022-11-14T19:39:24.446Z,16.90
2022-11-14T19:41:51.657Z,17.33
2022-11-14T19:44:18.583Z,17.70
2022-11-14T19:46:47.767Z,17.50
2022-11-14T19:49:15.085Z,18.17
2022-11-14T19:51:42.042Z,18.80
2022-11-14T19:54:10.612Z,17.03
2022-11-14T19:56:37.474Z,17.07
2022-11-14T19:59:09.559Z,21.00
2022-11-14T20:01:38.403Z,19.40
2022-11-14T20:04:07.277Z,17.50
2022-11-14T20:06:37.866Z,18.37
2022-11-14T20:09:09.261Z,18.30
2022-11-14T20:11:36.698Z,19.00
2022-11-14T20:14:05.542Z,18.93
2022-11-14T20:16:35.706Z,17.77
2022-11-14T20:19:03.274Z,18.30
2022-11-14T20:21:32.765Z,19.93
2022-11-14T20:23:59.948Z,18.43
2022-11-14T20:26:27.666Z,18.83
2022-11-14T20:28:54.796Z,20.07
2022-11-14T20:31:28.524Z,20.37
2022-11-14T20:33:55.979Z,18.90
2022-11-14T20:36:26.093Z,21.57
2022-11-14T20:38:54.018Z,20.60
2022-11-14T20:41:21.796Z,22.00
2022-11-14T20:43:48.962Z,20.87
2022-11-14T20:46:19.459Z,20.33
2022-11-14T20:48:48.169Z,20.30
2022-11-14T20:51:17.022Z,19.37
2022-11-14T20:53:44.719Z,19.63
2022-11-14T20:56:12.776Z,19.60
2022-11-14T20:58:45.013Z,19.73
2022-11-14T21:01:13.198Z,18.77
2022-11-14T21:03:40.892Z,18.87
2022-11-14T21:06:11.192Z,18.87
2022-11-14T21:08:39.187Z,19.60
2022-11-14T21:11:12.236Z,18.87
2022-11-14T21:13:58.916Z,22.13
2022-11-14T21:16:39.305Z,20.83
2022-11-14T21:19:07.261Z,20.23
2022-11-14T21:21:36.592Z,20.63
2022-11-14T21:24:04.014Z,21.00
2022-11-14T21:26:38.322Z,19.03
2022-11-14T21:29:12.141Z,18.23
2022-11-14T21:31:45.438Z,19.20
2022-11-14T21:34:15.514Z,19.27
2022-11-14T21:36:45.553Z,20.00
2022-11-14T21:39:15.441Z,18.07
2022-11-14T21:41:44.342Z,17.20
2022-11-14T21:44:13.819Z,19.17
2022-11-14T21:46:41.053Z,20.13
2022-11-14T21:49:09.009Z,18.50
2022-11-14T21:51:36.177Z,21.97
2022-11-14T21:54:03.566Z,22.33
2022-11-14T21:56:33.114Z,20.17
2022-11-14T21:59:15.094Z,19.50
2022-11-14T22:02:09.479Z,19.70
2022-11-14T22:04:37.234Z,18.57
2022-11-14T22:07:07.260Z,19.43
2022-11-14T22:09:38.694Z,20.63
2022-11-14T22:12:08.193Z,23.33
2022-11-14T22:14:35.057Z,19.37
2022-11-14T22:17:02.024Z,20.77
2022-11-14T22:19:28.854Z,19.70
2022-11-14T22:21:55.724Z,22.00
2022-11-14T22:24:23.582Z,23.67
2022-11-14T22:26:50.482Z,21.00
2022-11-14T22:29:17.712Z,20.70
2022-11-14T22:31:44.721Z,22.83
2022-11-14T22:34:12.358Z,21.60
2022-11-14T22:36:39.278Z,22.53
2022-11-14T22:39:06.165Z,21.40
2022-11-14T22:41:33.872Z,20.27
2022-11-14T22:44:02.350Z,18.43
2022-11-14T22:46:29.810Z,20.00
2022-11-14T22:48:56.899Z,19.40
2022-11-14T22:51:28.124Z,19.60
2022-11-14T22:53:57.379Z,18.00
2022-11-14T22:56:28.195Z,18.30
2022-11-14T22:58:55.823Z,19.40
2022-11-14T23:01:29.572Z,19.80
2022-11-14T23:04:02.889Z,18.20
2022-11-14T23:06:32.887Z,18.40
2022-11-14T23:09:01.497Z,19.40
2022-11-14T23:11:31.092Z,20.60
2022-11-14T23:14:00.756Z,19.37
2022-11-14T23:16:31.395Z,19.80
2022-11-14T23:19:01.461Z,18.77
2022-11-14T23:21:33.840Z,19.27
2022-11-14T23:24:08.662Z,19.40
2022-11-14T23:26:35.553Z,18.90
2022-11-14T23:29:02.571Z,19.47
2022-11-14T23:31:29.511Z,18.20
2022-11-14T23:33:58.121Z,18.60
2022-11-14T23:36:25.592Z,19.87
2022-11-14T23:38:53.791Z,17.40
2022-11-14T23:41:23.533Z,18.43
2022-11-14T23:43:50.399Z,18.70
2022-11-14T23:46:17.442Z,19.27
2022-11-14T23:48:44.340Z,21.20
2022-11-14T23:51:13.447Z,20.63
2022-11-14T23:53:41.062Z,18.13
2022-11-14T23:56:13.022Z,18.73
2022-11-14T23:58:40.337Z,19.00
